Time,TemperatureF,DewpointF,PressureIn,WindDirection,WindDirectionDegrees,WindSpeedMPH,WindSpeedGustMPH,Humidity,HourlyPrecipIn,Conditions,Clouds,dailyrainin,SoftwareType,DateUTC
2013-05-29 00:02:00,58.5,56.5,29.99,SW,225,0.0,2.0,93,0.00,,,0.00,meteohub,2013-05-29 05:02:00,
2013-05-29 00:07:00,58.3,56.3,29.98,SW,225,2.0,2.0,93,0.00,,,0.00,meteohub,2013-05-29 05:07:00,
2013-05-29 00:12:00,58.3,56.3,29.98,North,0,52.0,52.0,93,0.00,,,0.00,meteohub,2013-05-29 05:12:00,
2013-05-29 00:17:00,58.1,56.1,29.98,SW,225,0.0,52.0,93,0.00,,,0.00,meteohub,2013-05-29 05:17:00,
2013-05-29 00:22:00,58.1,56.1,29.99,East,90,2.0,52.0,93,0.00,,,0.00,meteohub,2013-05-29 05:22:00,
2013-05-29 00:27:00,58.1,56.1,29.99,NE,45,2.0,52.0,93,0.00,,,0.00,meteohub,2013-05-29 05:27:00,
2013-05-29 00:32:00,58.1,56.1,29.99,North,0,0.0,2.0,93,0.00,,,0.00,meteohub,2013-05-29 05:32:00,
2013-05-29 00:37:00,58.1,56.3,29.99,North,0,2.0,2.0,94,0.00,,,0.00,meteohub,2013-05-29 05:37:00,
2013-05-29 00:42:00,58.1,56.3,29.99,NE,45,2.0,4.0,94,0.00,,,0.00,meteohub,2013-05-29 05:42:00,
2013-05-29 00:47:00,58.3,56.5,29.99,ESE,113,3.0,4.0,94,0.00,,,0.00,meteohub,2013-05-29 05:47:00,
2013-05-29 00:52:00,58.3,56.5,29.99,ESE,113,2.0,4.0,94,0.00,,,0.00,meteohub,2013-05-29 05:52:00,
2013-05-29 00:57:00,58.3,56.5,29.99,SE,135,4.0,8.0,94,0.00,,,0.00,meteohub,2013-05-29 05:57:00,
2013-05-29 01:02:00,58.3,56.3,30.00,East,90,2.0,8.0,93,0.00,,,0.00,meteohub,2013-05-29 06:02:00,
2013-05-29 01:07:00,58.3,56.3,30.00,East,90,2.0,4.0,93,0.00,,,0.00,meteohub,2013-05-29 06:07:00,
2013-05-29 01:12:00,58.3,56.3,30.00,South,180,4.0,4.0,93,0.00,,,0.00,meteohub,2013-05-29 06:12:00,
2013-05-29 01:17:00,58.3,56.3,30.00,North,0,2.0,4.0,93,0.00,,,0.00,meteohub,2013-05-29 06:17:00,
2013-05-29 01:22:00,58.3,56.3,29.99,NE,45,2.0,4.0,93,0.00,,,0.00,meteohub,2013-05-29 06:22:00,
2013-05-29 01:27:00,58.3,56.3,29.99,NE,45,1.0,4.0,93,0.00,,,0.00,meteohub,2013-05-29 06:27:00,
2013-05-29 01:32:00,58.3,56.3,29.99,East,90,1.0,3.0,93,0.00,,,0.00,meteohub,2013-05-29 06:32:00,
2013-05-29 01:37:00,58.3,56.3,29.99,East,90,2.0,2.0,93,0.00,,,0.00,meteohub,2013-05-29 06:37:00,
2013-05-29 01:42:00,58.1,56.1,29.99,East,90,0.0,2.0,93,0.00,,,0.00,meteohub,2013-05-29 06:42:00,
2013-05-29 01:47:00,58.3,56.3,29.99,SW,225,1.0,2.0,93,0.00,,,0.00,meteohub,2013-05-29 06:47:00,
2013-05-29 01:52:00,58.1,56.1,29.98,SW,225,1.0,2.0,93,0.00,,,0.00,meteohub,2013-05-29 06:52:00,
2013-05-29 01:57:00,58.1,56.1,29.98,SW,225,0.0,2.0,93,0.00,,,0.00,meteohub,2013-05-29 06:57:00,
2013-05-29 02:02:00,57.9,55.9,29.97,South,180,2.0,2.0,93,0.00,,,0.00,meteohub,2013-05-29 07:02:00,
2013-05-29 02:07:00,57.9,55.9,29.97,South,180,0.0,2.0,93,0.00,,,0.00,meteohub,2013-05-29 07:07:00,
2013-05-29 02:12:00,57.9,55.9,29.97,South,180,0.0,2.0,93,0.00,,,0.00,meteohub,2013-05-29 07:12:00,
2013-05-29 02:17:00,57.9,56.1,29.97,South,180,0.0,2.0,94,0.00,,,0.00,meteohub,2013-05-29 07:17:00,
2013-05-29 02:22:00,57.7,55.9,29.97,South,180,0.0,0.0,94,0.00,,,0.00,meteohub,2013-05-29 07:22:00,
2013-05-29 02:27:00,57.7,55.9,29.98,NE,45,2.0,0.0,94,0.00,,,0.00,meteohub,2013-05-29 07:27:00,
2013-05-29 02:32:00,57.7,55.9,29.98,NE,45,0.0,2.0,94,0.00,,,0.00,meteohub,2013-05-29 07:32:00,
2013-05-29 02:37:00,57.7,55.9,29.98,NE,45,0.0,2.0,94,0.00,,,0.00,meteohub,2013-05-29 07:37:00,
2013-05-29 02:42:00,57.7,55.9,29.98,NE,45,0.0,2.0,94,0.00,,,0.00,meteohub,2013-05-29 07:42:00,
2013-05-29 02:47:00,57.7,55.9,29.97,South,180,0.0,1.0,94,0.00,,,0.00,meteohub,2013-05-29 07:47:00,
2013-05-29 02:52:00,57.7,55.9,29.98,North,0,1.0,0.0,94,0.00,,,0.00,meteohub,2013-05-29 07:52:00,
2013-05-29 02:57:00,57.7,55.9,29.99,South,180,0.0,2.0,94,0.00,,,0.00,meteohub,2013-05-29 07:57:00,
2013-05-29 03:02:00,57.6,56.1,29.99,NE,45,0.0,2.0,95,0.00,,,0.00,meteohub,2013-05-29 08:02:00,
2013-05-29 03:07:00,57.6,56.1,29.99,NE,45,0.0,2.0,95,0.00,,,0.00,meteohub,2013-05-29 08:07:00,
2013-05-29 03:12:00,57.6,56.1,29.99,NE,45,0.0,1.0,95,0.00,,,0.00,meteohub,2013-05-29 08:12:00,
2013-05-29 03:17:00,57.6,56.1,30.00,North,0,1.0,2.0,95,0.00,,,0.00,meteohub,2013-05-29 08:17:00,
2013-05-29 03:22:00,57.6,56.1,30.00,North,0,1.0,2.0,95,0.00,,,0.00,meteohub,2013-05-29 08:22:00,
2013-05-29 03:27:00,57.6,56.1,30.00,North,0,0.0,2.0,95,0.00,,,0.00,meteohub,2013-05-29 08:27:00,
2013-05-29 03:32:00,57.6,56.1,30.00,North,0,0.0,2.0,95,0.00,,,0.00,meteohub,2013-05-29 08:32:00,
2013-05-29 03:37:00,57.6,56.1,30.00,SW,225,0.0,2.0,95,0.00,,,0.00,meteohub,2013-05-29 08:37:00,
2013-05-29 03:42:00,57.4,55.9,30.00,NE,45,1.0,2.0,95,0.00,,,0.00,meteohub,2013-05-29 08:42:00,
2013-05-29 03:47:00,57.2,55.8,29.99,SW,225,1.0,2.0,95,0.00,,,0.00,meteohub,2013-05-29 08:47:00,
2013-05-29 03:52:00,57.0,55.9,29.99,South,180,0.0,2.0,96,0.00,,,0.00,meteohub,2013-05-29 08:52:00,
2013-05-29 03:57:00,56.8,55.8,30.00,South,180,1.0,2.0,96,0.00,,,0.00,meteohub,2013-05-29 08:57:00,
2013-05-29 04:02:00,56.7,55.6,30.00,South,180,0.0,2.0,96,0.00,,,0.00,meteohub,2013-05-29 09:02:00,
2013-05-29 04:07:00,56.5,55.6,30.00,South,180,0.0,2.0,97,0.00,,,0.00,meteohub,2013-05-29 09:07:00,
2013-05-29 04:12:00,56.3,55.4,30.00,South,180,0.0,2.0,97,0.00,,,0.00,meteohub,2013-05-29 09:12:00,
2013-05-29 04:17:00,56.1,55.2,29.99,SW,225,2.0,2.0,97,0.00,,,0.00,meteohub,2013-05-29 09:17:00,
2013-05-29 04:22:00,55.9,55.0,29.99,SW,225,0.0,2.0,97,0.00,,,0.00,meteohub,2013-05-29 09:22:00,
2013-05-29 04:27:00,55.8,54.9,30.00,South,180,1.0,2.0,97,0.00,,,0.00,meteohub,2013-05-29 09:27:00,
2013-05-29 04:32:00,55.4,54.5,30.00,NE,45,2.0,2.0,97,0.00,,,0.00,meteohub,2013-05-29 09:32:00,
2013-05-29 04:37:00,55.4,54.5,30.01,North,0,1.0,2.0,97,0.00,,,0.00,meteohub,2013-05-29 09:37:00,
2013-05-29 04:42:00,55.2,54.3,30.01,North,0,0.0,2.0,97,0.00,,,0.00,meteohub,2013-05-29 09:42:00,
2013-05-29 04:47:00,55.0,54.1,30.00,West,270,0.0,2.0,97,0.00,,,0.00,meteohub,2013-05-29 09:47:00,
2013-05-29 04:52:00,54.7,53.8,29.99,SW,225,2.0,2.0,97,0.00,,,0.00,meteohub,2013-05-29 09:52:00,
2013-05-29 04:57:00,54.5,53.6,30.00,NW,315,0.0,2.0,97,0.00,,,0.00,meteohub,2013-05-29 09:57:00,
2013-05-29 05:02:00,54.5,53.6,30.00,North,0,0.0,2.0,97,0.00,,,0.00,meteohub,2013-05-29 10:02:00,
2013-05-29 05:07:00,54.5,53.6,29.99,SW,225,1.0,2.0,97,0.00,,,0.00,meteohub,2013-05-29 10:07:00,
2013-05-29 05:12:00,54.5,53.6,29.98,SW,225,1.0,2.0,97,0.00,,,0.00,meteohub,2013-05-29 10:12:00,
2013-05-29 05:17:00,54.3,53.4,29.98,SW,225,1.0,2.0,97,0.00,,,0.00,meteohub,2013-05-29 10:17:00,
2013-05-29 05:22:00,54.3,53.4,29.98,SW,225,1.0,2.0,97,0.00,,,0.00,meteohub,2013-05-29 10:22:00,
2013-05-29 05:27:00,54.3,53.4,29.99,North,0,1.0,2.0,97,0.00,,,0.00,meteohub,2013-05-29 10:27:00,
2013-05-29 05:32:00,54.1,53.2,30.00,NE,45,2.0,2.0,97,0.00,,,0.00,meteohub,2013-05-29 10:32:00,
2013-05-29 05:37:00,54.1,53.2,30.01,NE,45,2.0,3.0,97,0.00,,,0.00,meteohub,2013-05-29 10:37:00,
2013-05-29 05:42:00,54.1,53.2,30.00,NE,45,0.0,3.0,97,0.00,,,0.00,meteohub,2013-05-29 10:42:00,
2013-05-29 05:47:00,54.1,53.2,29.99,NE,45,0.0,2.0,97,0.00,,,0.00,meteohub,2013-05-29 10:47:00,
2013-05-29 05:52:00,54.1,53.2,29.99,NW,315,3.0,3.0,97,0.00,,,0.00,meteohub,2013-05-29 10:52:00,
2013-05-29 05:57:00,54.3,53.4,29.99,NW,315,2.0,3.0,97,0.00,,,0.00,meteohub,2013-05-29 10:57:00,
2013-05-29 06:02:00,54.5,53.6,29.99,West,270,2.0,3.0,97,0.00,,,0.00,meteohub,2013-05-29 11:02:00,
2013-05-29 06:07:00,54.7,53.8,29.99,West,270,1.0,3.0,97,0.00,,,0.00,meteohub,2013-05-29 11:07:00,
2013-05-29 06:12:00,54.7,53.8,30.00,North,0,2.0,2.0,97,0.00,,,0.00,meteohub,2013-05-29 11:12:00,
2013-05-29 06:17:00,54.7,53.8,30.00,NW,315,1.0,2.0,97,0.00,,,0.00,meteohub,2013-05-29 11:17:00,
2013-05-29 06:22:00,54.7,53.8,29.99,NW,315,2.0,2.0,97,0.00,,,0.00,meteohub,2013-05-29 11:22:00,
2013-05-29 06:27:00,54.9,54.0,29.99,NW,315,2.0,2.0,97,0.00,,,0.00,meteohub,2013-05-29 11:27:00,
2013-05-29 06:32:00,55.2,54.3,29.99,NW,315,4.0,4.0,97,0.00,,,0.00,meteohub,2013-05-29 11:32:00,
2013-05-29 06:37:00,55.4,55.0,30.00,NW,315,8.0,8.0,99,0.00,,,0.00,meteohub,2013-05-29 11:37:00,
2013-05-29 06:42:00,55.6,55.2,30.00,NW,315,4.0,8.0,99,0.00,,,0.00,meteohub,2013-05-29 11:42:00,
2013-05-29 06:47:00,55.9,55.6,30.01,North,0,4.0,8.0,99,0.00,,,0.00,meteohub,2013-05-29 11:47:00,
2013-05-29 06:52:00,56.1,55.8,30.02,North,0,4.0,8.0,99,0.00,,,0.00,meteohub,2013-05-29 11:52:00,
2013-05-29 06:57:00,56.3,55.9,30.03,NE,45,4.0,7.0,99,0.00,,,0.00,meteohub,2013-05-29 11:57:00,
2013-05-29 07:02:00,56.5,56.1,30.01,NW,315,2.0,7.0,99,0.00,,,0.00,meteohub,2013-05-29 12:02:00,
2013-05-29 07:08:00,56.7,56.3,30.02,NW,315,3.0,7.0,99,0.00,,,0.00,meteohub,2013-05-29 12:08:00,
2013-05-29 07:13:00,56.8,56.5,30.02,NE,45,3.0,9.0,99,0.00,,,0.00,meteohub,2013-05-29 12:13:00,
2013-05-29 07:18:00,57.0,56.7,30.02,North,0,4.0,9.0,99,0.00,,,0.00,meteohub,2013-05-29 12:18:00,
2013-05-29 07:23:00,57.0,56.7,30.01,North,0,8.0,9.0,99,0.00,,,0.00,meteohub,2013-05-29 12:23:00,
2013-05-29 07:28:00,57.2,56.8,30.01,NW,315,3.0,8.0,99,0.00,,,0.00,meteohub,2013-05-29 12:28:00,
2013-05-29 07:33:00,57.4,57.0,30.01,North,0,4.0,8.0,99,0.00,,,0.00,meteohub,2013-05-29 12:33:00,
2013-05-29 07:38:00,57.6,57.2,30.01,NW,315,4.0,8.0,99,0.00,,,0.00,meteohub,2013-05-29 12:38:00,
2013-05-29 07:43:00,57.7,57.4,30.01,North,0,7.0,7.0,99,0.00,,,0.00,meteohub,2013-05-29 12:43:00,
2013-05-29 07:48:00,57.9,57.6,30.01,North,0,8.0,8.0,99,0.00,,,0.00,meteohub,2013-05-29 12:48:00,
2013-05-29 07:53:00,58.3,57.9,30.01,North,0,8.0,8.0,99,0.00,,,0.00,meteohub,2013-05-29 12:53:00,
2013-05-29 07:58:00,58.5,58.1,30.01,NW,315,4.0,8.0,99,0.00,,,0.00,meteohub,2013-05-29 12:58:00,
2013-05-29 08:03:00,59.0,58.6,30.01,North,0,2.0,8.0,99,0.00,,,0.00,meteohub,2013-05-29 13:03:00,
2013-05-29 08:08:00,59.5,59.2,30.01,North,0,4.0,8.0,99,0.00,,,0.00,meteohub,2013-05-29 13:08:00,
2013-05-29 08:13:00,59.7,59.4,30.01,NW,315,2.0,5.0,99,0.00,,,0.00,meteohub,2013-05-29 13:13:00,
2013-05-29 08:18:00,60.6,60.3,30.03,North,0,2.0,5.0,99,0.00,,,0.00,meteohub,2013-05-29 13:18:00,
2013-05-29 08:23:00,61.3,60.4,30.02,East,90,2.0,5.0,97,0.00,,,0.00,meteohub,2013-05-29 13:23:00,
2013-05-29 08:28:00,61.9,60.8,30.03,East,90,4.0,5.0,96,0.00,,,0.00,meteohub,2013-05-29 13:28:00,
2013-05-29 08:33:00,62.4,60.6,30.03,East,90,8.0,8.0,94,0.00,,,0.00,meteohub,2013-05-29 13:33:00,
2013-05-29 08:38:00,62.6,59.4,30.03,ESE,113,3.0,9.0,89,0.00,,,0.00,meteohub,2013-05-29 13:38:00,
2013-05-29 08:43:00,63.1,59.5,30.03,North,0,4.0,9.0,88,0.00,,,0.00,meteohub,2013-05-29 13:43:00,
2013-05-29 08:48:00,63.5,59.9,30.03,North,0,5.0,9.0,88,0.01,,,0.01,meteohub,2013-05-29 13:48:00,
2013-05-29 08:53:00,63.5,58.8,30.03,NW,315,4.0,6.0,85,0.01,,,0.01,meteohub,2013-05-29 13:53:00,
2013-05-29 08:58:00,63.9,59.2,30.02,NW,315,4.0,5.0,85,0.01,,,0.01,meteohub,2013-05-29 13:58:00,
2013-05-29 09:03:00,64.0,59.2,30.02,NW,315,3.0,7.0,84,0.01,,,0.01,meteohub,2013-05-29 14:03:00,
2013-05-29 09:08:00,64.4,59.5,30.02,North,0,7.0,7.0,84,0.01,,,0.01,meteohub,2013-05-29 14:08:00,
2013-05-29 09:13:00,64.4,59.5,30.01,North,0,2.0,9.0,84,0.01,,,0.01,meteohub,2013-05-29 14:13:00,
2013-05-29 09:18:00,64.9,59.9,30.00,NE,45,2.0,9.0,84,0.01,,,0.01,meteohub,2013-05-29 14:18:00,
2013-05-29 09:23:00,65.5,60.3,30.00,SW,225,3.0,9.0,83,0.01,,,0.01,meteohub,2013-05-29 14:23:00,
2013-05-29 09:28:00,66.2,60.6,29.99,West,270,2.0,4.0,82,0.01,,,0.01,meteohub,2013-05-29 14:28:00,
2013-05-29 09:34:00,67.1,61.3,29.99,North,0,2.0,4.0,82,0.01,,,0.01,meteohub,2013-05-29 14:34:00,
2013-05-29 09:39:00,67.8,61.7,29.99,North,0,5.0,5.0,81,0.01,,,0.01,meteohub,2013-05-29 14:39:00,
2013-05-29 09:44:00,68.0,61.2,29.98,North,0,6.0,7.0,79,0.01,,,0.01,meteohub,2013-05-29 14:44:00,
2013-05-29 09:49:00,68.5,61.7,29.99,West,270,2.0,7.0,79,0.00,,,0.01,meteohub,2013-05-29 14:49:00,
2013-05-29 09:54:00,69.1,61.2,29.99,North,0,3.0,7.0,76,0.00,,,0.01,meteohub,2013-05-29 14:54:00,
2013-05-29 09:59:00,69.1,61.5,29.99,North,0,4.0,9.0,77,0.00,,,0.01,meteohub,2013-05-29 14:59:00,
2013-05-29 10:04:00,69.6,62.1,29.98,North,0,6.0,9.0,77,0.00,,,0.01,meteohub,2013-05-29 15:04:00,
2013-05-29 10:09:00,69.4,61.5,29.98,NW,315,6.0,9.0,76,0.00,,,0.01,meteohub,2013-05-29 15:09:00,
2013-05-29 10:14:00,69.6,61.7,29.99,North,0,12.0,12.0,76,0.00,,,0.01,meteohub,2013-05-29 15:14:00,
2013-05-29 10:19:00,69.4,61.9,29.98,NW,315,8.0,9.0,77,0.00,,,0.01,meteohub,2013-05-29 15:19:00,
2013-05-29 10:24:00,69.1,61.5,29.99,NW,315,7.0,12.0,77,0.00,,,0.01,meteohub,2013-05-29 15:24:00,
2013-05-29 10:29:00,68.7,61.5,29.98,North,0,5.0,12.0,78,0.00,,,0.01,meteohub,2013-05-29 15:29:00,
2013-05-29 10:34:00,68.4,61.5,29.98,NW,315,4.0,12.0,79,0.00,,,0.01,meteohub,2013-05-29 15:34:00,
2013-05-29 10:39:00,68.2,61.7,29.98,West,270,7.0,11.0,80,0.00,,,0.01,meteohub,2013-05-29 15:39:00,
2013-05-29 10:44:00,68.5,62.1,29.98,NW,315,7.0,11.0,80,0.00,,,0.01,meteohub,2013-05-29 15:44:00,
2013-05-29 10:49:00,68.0,61.2,29.99,West,270,3.0,10.0,79,0.00,,,0.01,meteohub,2013-05-29 15:49:00,
2013-05-29 10:54:00,67.6,61.5,29.98,NW,315,4.0,17.0,81,0.00,,,0.01,meteohub,2013-05-29 15:54:00,
2013-05-29 10:59:00,68.0,61.9,29.98,North,0,9.0,17.0,81,0.00,,,0.01,meteohub,2013-05-29 15:59:00,
2013-05-29 11:04:00,67.8,61.7,29.98,NW,315,8.0,17.0,81,0.00,,,0.01,meteohub,2013-05-29 16:04:00,
2013-05-29 11:09:00,67.8,62.1,29.98,NW,315,11.0,11.0,82,0.00,,,0.01,meteohub,2013-05-29 16:09:00,
2013-05-29 11:14:00,67.3,61.5,29.98,North,0,7.0,11.0,82,0.00,,,0.01,meteohub,2013-05-29 16:14:00,
2013-05-29 11:19:00,67.1,61.7,29.98,North,0,4.0,13.0,83,0.00,,,0.01,meteohub,2013-05-29 16:19:00,
2013-05-29 11:24:00,67.8,62.4,29.97,North,0,9.0,15.0,83,0.00,,,0.01,meteohub,2013-05-29 16:24:00,
2013-05-29 11:29:00,68.2,62.4,29.97,NW,315,8.0,15.0,82,0.00,,,0.01,meteohub,2013-05-29 16:29:00,
2013-05-29 11:34:00,68.2,62.4,29.97,NW,315,8.0,15.0,82,0.00,,,0.01,meteohub,2013-05-29 16:34:00,
2013-05-29 11:39:00,68.9,63.1,29.97,NE,45,8.0,11.0,82,0.00,,,0.01,meteohub,2013-05-29 16:39:00,
2013-05-29 11:45:00,69.3,63.1,29.97,NW,315,4.0,11.0,81,0.00,,,0.01,meteohub,2013-05-29 16:45:00,
2013-05-29 11:50:00,70.2,63.7,29.97,North,0,9.0,9.0,80,0.00,,,0.01,meteohub,2013-05-29 16:50:00,
2013-05-29 11:55:00,70.3,63.5,29.98,NW,315,4.0,11.0,79,0.00,,,0.01,meteohub,2013-05-29 16:55:00,
2013-05-29 12:00:00,70.9,64.0,29.98,NW,315,6.0,12.0,79,0.00,,,0.01,meteohub,2013-05-29 17:00:00,
2013-05-29 12:05:00,70.7,63.5,29.98,NW,315,4.0,13.0,78,0.00,,,0.01,meteohub,2013-05-29 17:05:00,
2013-05-29 12:10:00,70.5,63.7,29.97,North,0,8.0,13.0,79,0.00,,,0.01,meteohub,2013-05-29 17:10:00,
2013-05-29 12:15:00,71.1,64.2,29.98,North,0,12.0,13.0,79,0.00,,,0.01,meteohub,2013-05-29 17:15:00,
2013-05-29 12:20:00,70.7,63.9,29.97,NW,315,15.0,15.0,79,0.00,,,0.01,meteohub,2013-05-29 17:20:00,
2013-05-29 12:25:00,71.1,64.2,29.97,North,0,7.0,15.0,79,0.00,,,0.01,meteohub,2013-05-29 17:25:00,
2013-05-29 12:30:00,71.6,64.4,29.97,NW,315,11.0,15.0,78,0.00,,,0.01,meteohub,2013-05-29 17:30:00,
2013-05-29 12:35:00,71.6,64.0,29.96,NW,315,11.0,15.0,77,0.00,,,0.01,meteohub,2013-05-29 17:35:00,
2013-05-29 12:40:00,71.6,64.0,29.96,NW,315,4.0,15.0,77,0.00,,,0.01,meteohub,2013-05-29 17:40:00,
2013-05-29 12:45:00,72.5,64.6,29.96,NW,315,15.0,15.0,76,0.00,,,0.01,meteohub,2013-05-29 17:45:00,
2013-05-29 12:50:00,72.3,64.4,29.96,North,0,8.0,15.0,76,0.00,,,0.01,meteohub,2013-05-29 17:50:00,
2013-05-29 12:55:00,72.7,65.1,29.96,NW,315,7.0,15.0,77,0.00,,,0.01,meteohub,2013-05-29 17:55:00,
2013-05-29 13:00:00,73.2,64.8,29.96,NW,315,8.0,9.0,75,0.00,,,0.01,meteohub,2013-05-29 18:00:00,
2013-05-29 13:05:00,73.0,64.2,29.96,North,0,12.0,12.0,74,0.00,,,0.01,meteohub,2013-05-29 18:05:00,
2013-05-29 13:10:00,73.2,64.8,29.96,NW,315,9.0,12.0,75,0.00,,,0.01,meteohub,2013-05-29 18:10:00,
2013-05-29 13:15:00,73.8,65.3,29.95,NW,315,7.0,12.0,75,0.00,,,0.01,meteohub,2013-05-29 18:15:00,
2013-05-29 13:20:00,73.4,64.6,29.96,NW,315,4.0,12.0,74,0.00,,,0.01,meteohub,2013-05-29 18:20:00,
2013-05-29 13:25:00,73.6,65.1,29.96,NW,315,3.0,12.0,75,0.00,,,0.01,meteohub,2013-05-29 18:25:00,
2013-05-29 13:30:00,73.6,65.1,29.96,North,0,4.0,12.0,75,0.00,,,0.01,meteohub,2013-05-29 18:30:00,
2013-05-29 13:35:00,73.8,65.3,29.96,NW,315,11.0,11.0,75,0.00,,,0.01,meteohub,2013-05-29 18:35:00,
2013-05-29 13:40:00,73.4,64.9,29.95,North,0,6.0,11.0,75,0.00,,,0.01,meteohub,2013-05-29 18:40:00,
2013-05-29 13:45:00,73.2,65.1,29.95,NW,315,4.0,11.0,76,0.00,,,0.01,meteohub,2013-05-29 18:45:00,
2013-05-29 13:50:00,73.0,65.5,29.94,SW,225,7.0,11.0,77,0.00,,,0.01,meteohub,2013-05-29 18:50:00,
2013-05-29 13:56:00,72.7,65.1,29.94,North,0,8.0,8.0,77,0.00,,,0.01,meteohub,2013-05-29 18:56:00,
2013-05-29 14:01:00,72.3,65.1,29.95,West,270,8.0,11.0,78,0.00,,,0.01,meteohub,2013-05-29 19:01:00,
2013-05-29 14:06:00,72.1,64.9,29.94,West,270,3.0,11.0,78,0.00,,,0.01,meteohub,2013-05-29 19:06:00,
2013-05-29 14:11:00,72.1,65.3,29.94,NW,315,3.0,11.0,79,0.00,,,0.01,meteohub,2013-05-29 19:11:00,
2013-05-29 14:16:00,72.5,65.7,29.94,WNW,293,5.0,10.0,79,0.00,,,0.01,meteohub,2013-05-29 19:16:00,
2013-05-29 14:21:00,73.4,66.9,29.93,NW,315,6.0,8.0,80,0.00,,,0.01,meteohub,2013-05-29 19:21:00,
2013-05-29 14:26:00,73.8,66.9,29.93,North,0,5.0,6.0,79,0.00,,,0.01,meteohub,2013-05-29 19:26:00,
2013-05-29 14:31:00,74.1,66.7,29.92,NW,315,4.0,7.0,78,0.00,,,0.01,meteohub,2013-05-29 19:31:00,
2013-05-29 14:36:00,74.7,67.3,29.93,NW,315,4.0,11.0,78,0.00,,,0.01,meteohub,2013-05-29 19:36:00,
2013-05-29 14:41:00,75.2,67.5,29.92,SW,225,6.0,11.0,77,0.00,,,0.01,meteohub,2013-05-29 19:41:00,
2013-05-29 14:46:00,76.1,68.0,29.93,NW,315,8.0,11.0,76,0.00,,,0.01,meteohub,2013-05-29 19:46:00,
2013-05-29 14:51:00,75.6,67.1,29.93,North,0,7.0,11.0,75,0.00,,,0.01,meteohub,2013-05-29 19:51:00,
2013-05-29 14:56:00,74.8,67.1,29.93,NW,315,7.0,13.0,77,0.00,,,0.01,meteohub,2013-05-29 19:56:00,
2013-05-29 15:01:00,74.5,67.1,29.92,NW,315,5.0,13.0,78,0.00,,,0.01,meteohub,2013-05-29 20:01:00,
2013-05-29 15:06:00,74.1,67.1,29.92,North,0,10.0,13.0,79,0.00,,,0.01,meteohub,2013-05-29 20:06:00,
2013-05-29 15:11:00,73.9,67.5,29.92,North,0,4.0,11.0,80,0.00,,,0.01,meteohub,2013-05-29 20:11:00,
2013-05-29 15:16:00,73.9,67.5,29.92,NW,315,3.0,11.0,80,0.00,,,0.01,meteohub,2013-05-29 20:16:00,
2013-05-29 15:21:00,73.4,66.9,29.92,North,0,7.0,11.0,80,0.00,,,0.01,meteohub,2013-05-29 20:21:00,
2013-05-29 15:26:00,73.2,66.7,29.92,NE,45,9.0,11.0,80,0.00,,,0.01,meteohub,2013-05-29 20:26:00,
2013-05-29 15:31:00,73.0,66.6,29.92,North,0,4.0,12.0,80,0.00,,,0.01,meteohub,2013-05-29 20:31:00,
2013-05-29 15:36:00,73.0,66.6,29.92,NW,315,4.0,12.0,80,0.00,,,0.01,meteohub,2013-05-29 20:36:00,
2013-05-29 15:41:00,72.7,66.6,29.92,North,0,12.0,12.0,81,0.00,,,0.01,meteohub,2013-05-29 20:41:00,
2013-05-29 15:46:00,72.5,66.4,29.92,NW,315,2.0,12.0,81,0.00,,,0.01,meteohub,2013-05-29 20:46:00,
2013-05-29 15:51:00,72.1,66.4,29.91,North,0,7.0,12.0,82,0.00,,,0.01,meteohub,2013-05-29 20:51:00,
2013-05-29 15:56:00,71.8,66.7,29.91,North,0,8.0,12.0,84,0.00,,,0.01,meteohub,2013-05-29 20:56:00,
2013-05-29 16:02:00,71.6,66.9,29.90,SW,225,2.0,9.0,85,0.00,,,0.01,meteohub,2013-05-29 21:02:00,
2013-05-29 16:07:00,71.4,67.3,29.90,North,0,5.0,9.0,87,0.00,,,0.01,meteohub,2013-05-29 21:07:00,
2013-05-29 16:12:00,71.2,67.5,29.89,NW,315,4.0,8.0,88,0.01,,,0.02,meteohub,2013-05-29 21:12:00,
2013-05-29 16:17:00,71.2,67.8,29.89,NW,315,5.0,6.0,89,0.01,,,0.02,meteohub,2013-05-29 21:17:00,
2013-05-29 16:22:00,71.1,68.0,29.88,NW,315,3.0,7.0,90,0.01,,,0.02,meteohub,2013-05-29 21:22:00,
2013-05-29 16:27:00,71.1,68.0,29.88,NW,315,5.0,7.0,90,0.01,,,0.02,meteohub,2013-05-29 21:27:00,
2013-05-29 16:32:00,71.1,68.4,29.86,NW,315,2.0,7.0,91,0.02,,,0.04,meteohub,2013-05-29 21:32:00,
2013-05-29 16:37:00,71.2,68.5,29.85,North,0,4.0,7.0,91,0.02,,,0.04,meteohub,2013-05-29 21:37:00,
2013-05-29 16:42:00,71.2,68.5,29.85,NW,315,2.0,7.0,91,0.04,,,0.04,meteohub,2013-05-29 21:42:00,
2013-05-29 16:47:00,71.4,68.9,29.85,NNE,23,2.0,6.0,92,0.04,,,0.05,meteohub,2013-05-29 21:47:00,
2013-05-29 16:52:00,71.8,69.1,29.85,North,0,4.0,6.0,91,0.04,,,0.05,meteohub,2013-05-29 21:52:00,
2013-05-29 16:57:00,72.7,70.2,29.84,North,0,7.0,7.0,92,0.04,,,0.05,meteohub,2013-05-29 21:57:00,
2013-05-29 17:02:00,73.2,70.7,29.85,NW,315,4.0,7.0,92,0.04,,,0.05,meteohub,2013-05-29 22:02:00,
2013-05-29 17:07:00,73.2,70.5,29.86,North,0,5.0,12.0,91,0.04,,,0.05,meteohub,2013-05-29 22:07:00,
2013-05-29 17:12:00,73.4,70.9,29.86,WNW,293,6.0,13.0,92,0.02,,,0.05,meteohub,2013-05-29 22:12:00,
2013-05-29 17:17:00,73.6,70.7,29.85,North,0,9.0,13.0,91,0.02,,,0.05,meteohub,2013-05-29 22:17:00,
2013-05-29 17:22:00,73.6,70.7,29.86,NW,315,11.0,14.0,91,0.02,,,0.05,meteohub,2013-05-29 22:22:00,
2013-05-29 17:27:00,73.6,70.5,29.86,West,270,10.0,14.0,90,0.01,,,0.05,meteohub,2013-05-29 22:27:00,
2013-05-29 17:32:00,73.8,70.7,29.87,North,0,4.0,14.0,90,0.01,,,0.05,meteohub,2013-05-29 22:32:00,
2013-05-29 17:37:00,73.8,70.7,29.87,North,0,6.0,11.0,90,0.01,,,0.05,meteohub,2013-05-29 22:37:00,
2013-05-29 17:42:00,73.8,70.7,29.87,NW,315,3.0,10.0,90,0.00,,,0.05,meteohub,2013-05-29 22:42:00,
2013-05-29 17:47:00,73.8,70.7,29.87,North,0,6.0,8.0,90,0.00,,,0.05,meteohub,2013-05-29 22:47:00,
2013-05-29 17:52:00,73.6,70.2,29.86,NW,315,3.0,8.0,89,0.00,,,0.05,meteohub,2013-05-29 22:52:00,
2013-05-29 17:57:00,73.6,70.5,29.86,NW,315,4.0,8.0,90,0.00,,,0.05,meteohub,2013-05-29 22:57:00,
2013-05-29 18:02:00,73.6,70.5,29.86,NW,315,5.0,8.0,90,0.00,,,0.05,meteohub,2013-05-29 23:02:00,
2013-05-29 18:08:00,73.4,70.3,29.86,NW,315,4.0,8.0,90,0.00,,,0.05,meteohub,2013-05-29 23:08:00,
2013-05-29 18:13:00,73.2,69.8,29.86,WNW,293,4.0,8.0,89,0.00,,,0.05,meteohub,2013-05-29 23:13:00,
2013-05-29 18:18:00,73.2,69.8,29.87,NW,315,2.0,8.0,89,0.00,,,0.05,meteohub,2013-05-29 23:18:00,
2013-05-29 18:23:00,73.2,69.8,29.87,NW,315,7.0,8.0,89,0.00,,,0.05,meteohub,2013-05-29 23:23:00,
2013-05-29 18:28:00,73.2,70.2,29.86,North,0,7.0,7.0,90,0.00,,,0.05,meteohub,2013-05-29 23:28:00,
2013-05-29 18:33:00,73.0,70.0,29.86,North,0,7.0,11.0,90,0.00,,,0.05,meteohub,2013-05-29 23:33:00,
2013-05-29 18:38:00,73.2,70.2,29.86,North,0,9.0,12.0,90,0.00,,,0.05,meteohub,2013-05-29 23:38:00,
2013-05-29 18:43:00,73.2,70.2,29.86,NW,315,4.0,12.0,90,0.00,,,0.05,meteohub,2013-05-29 23:43:00,
2013-05-29 18:48:00,73.0,70.0,29.86,NW,315,5.0,12.0,90,0.00,,,0.05,meteohub,2013-05-29 23:48:00,
2013-05-29 18:53:00,73.0,69.6,29.85,NW,315,8.0,12.0,89,0.00,,,0.05,meteohub,2013-05-29 23:53:00,
2013-05-29 18:58:00,73.0,69.6,29.85,NW,315,10.0,15.0,89,0.00,,,0.05,meteohub,2013-05-29 23:58:00,
2013-05-29 19:03:00,73.0,69.6,29.86,North,0,11.0,15.0,89,0.00,,,0.05,meteohub,2013-05-30 00:03:00,
2013-05-29 19:08:00,72.9,69.1,29.86,North,0,13.0,13.0,88,0.00,,,0.00,meteohub,2013-05-30 00:08:00,
2013-05-29 19:13:00,72.9,68.7,29.86,North,0,8.0,15.0,87,0.00,,,0.00,meteohub,2013-05-30 00:13:00,
2013-05-29 19:18:00,72.7,67.8,29.85,North,0,11.0,15.0,85,0.00,,,0.00,meteohub,2013-05-30 00:18:00,
2013-05-29 19:23:00,72.7,67.6,29.86,NW,315,8.0,17.0,84,0.00,,,0.00,meteohub,2013-05-30 00:23:00,
2013-05-29 19:28:00,72.3,67.6,29.85,NW,315,8.0,17.0,85,0.00,,,0.00,meteohub,2013-05-30 00:28:00,
2013-05-29 19:33:00,72.0,67.3,29.85,North,0,7.0,15.0,85,0.00,,,0.00,meteohub,2013-05-30 00:33:00,
2013-05-29 19:38:00,71.8,67.1,29.85,NW,315,3.0,16.0,85,0.00,,,0.00,meteohub,2013-05-30 00:38:00,
2013-05-29 19:43:00,71.4,67.1,29.85,North,0,5.0,16.0,86,0.00,,,0.00,meteohub,2013-05-30 00:43:00,
2013-05-29 19:48:00,71.1,66.7,29.85,North,0,8.0,15.0,86,0.00,,,0.00,meteohub,2013-05-30 00:48:00,
2013-05-29 19:53:00,70.9,66.7,29.85,West,270,4.0,15.0,87,0.00,,,0.00,meteohub,2013-05-30 00:53:00,
2013-05-29 19:58:00,70.7,66.6,29.86,NE,45,9.0,14.0,87,0.00,,,0.00,meteohub,2013-05-30 00:58:00,
2013-05-29 20:03:00,70.3,66.2,29.86,North,0,8.0,11.0,87,0.00,,,0.00,meteohub,2013-05-30 01:03:00,
2013-05-29 20:08:00,70.2,66.4,29.86,North,0,12.0,13.0,88,0.00,,,0.00,meteohub,2013-05-30 01:08:00,
2013-05-29 20:14:00,70.2,66.4,29.87,NW,315,10.0,13.0,88,0.00,,,0.00,meteohub,2013-05-30 01:14:00,
2013-05-29 20:19:00,70.0,66.2,29.87,NW,315,8.0,13.0,88,0.00,,,0.00,meteohub,2013-05-30 01:19:00,
2013-05-29 20:24:00,69.8,66.0,29.87,North,0,10.0,12.0,88,0.00,,,0.00,meteohub,2013-05-30 01:24:00,
2013-05-29 20:29:00,69.8,66.0,29.88,NW,315,6.0,12.0,88,0.00,,,0.00,meteohub,2013-05-30 01:29:00,
2013-05-29 20:34:00,69.6,66.2,29.89,NE,45,8.0,10.0,89,0.00,,,0.00,meteohub,2013-05-30 01:34:00,
2013-05-29 20:39:00,69.6,66.2,29.89,East,90,4.0,10.0,89,0.00,,,0.00,meteohub,2013-05-30 01:39:00,
2013-05-29 20:44:00,69.4,66.0,29.88,North,0,13.0,13.0,89,0.00,,,0.00,meteohub,2013-05-30 01:44:00,
2013-05-29 20:49:00,69.4,65.7,29.88,North,0,12.0,13.0,88,0.00,,,0.00,meteohub,2013-05-30 01:49:00,
2013-05-29 20:54:00,69.3,65.3,29.88,North,0,11.0,13.0,87,0.00,,,0.00,meteohub,2013-05-30 01:54:00,
2013-05-29 20:59:00,69.3,64.9,29.88,North,0,8.0,13.0,86,0.00,,,0.00,meteohub,2013-05-30 01:59:00,
2013-05-29 21:04:00,69.1,64.8,29.88,NW,315,9.0,13.0,86,0.00,,,0.00,meteohub,2013-05-30 02:04:00,
2013-05-29 21:09:00,68.9,64.6,29.88,North,0,11.0,13.0,86,0.00,,,0.00,meteohub,2013-05-30 02:09:00,
2013-05-29 21:14:00,68.9,64.6,29.88,NW,315,12.0,15.0,86,0.00,,,0.00,meteohub,2013-05-30 02:14:00,
2013-05-29 21:19:00,68.7,64.0,29.89,North,0,4.0,15.0,85,0.00,,,0.00,meteohub,2013-05-30 02:19:00,
2013-05-29 21:24:00,68.7,64.0,29.88,East,90,5.0,12.0,85,0.00,,,0.00,meteohub,2013-05-30 02:24:00,
2013-05-29 21:29:00,68.5,63.9,29.88,NW,315,5.0,12.0,85,0.00,,,0.00,meteohub,2013-05-30 02:29:00,
2013-05-29 21:34:00,68.5,63.9,29.87,West,270,4.0,13.0,85,0.00,,,0.00,meteohub,2013-05-30 02:34:00,
2013-05-29 21:39:00,68.4,63.7,29.87,North,0,6.0,13.0,85,0.00,,,0.00,meteohub,2013-05-30 02:39:00,
2013-05-29 21:44:00,68.2,63.5,29.88,North,0,7.0,13.0,85,0.00,,,0.00,meteohub,2013-05-30 02:44:00,
2013-05-29 21:49:00,68.2,63.5,29.90,North,0,7.0,11.0,85,0.00,,,0.00,meteohub,2013-05-30 02:49:00,
2013-05-29 21:54:00,68.0,63.3,29.90,WNW,293,4.0,9.0,85,0.00,,,0.00,meteohub,2013-05-30 02:54:00,
2013-05-29 21:59:00,68.0,63.3,29.90,NE,45,8.0,11.0,85,0.00,,,0.00,meteohub,2013-05-30 02:59:00,
2013-05-29 22:04:00,68.0,63.3,29.90,North,0,10.0,11.0,85,0.00,,,0.00,meteohub,2013-05-30 03:04:00,
2013-05-29 22:09:00,68.0,63.3,29.89,North,0,8.0,14.0,85,0.00,,,0.00,meteohub,2013-05-30 03:09:00,
2013-05-29 22:14:00,67.6,63.3,29.88,North,0,17.0,17.0,86,0.00,,,0.00,meteohub,2013-05-30 03:14:00,
2013-05-29 22:20:00,66.6,63.0,29.89,East,90,5.0,15.0,88,0.02,,,0.02,meteohub,2013-05-30 03:20:00,
2013-05-29 22:25:00,66.0,63.3,29.90,NE,45,11.0,17.0,91,0.09,,,0.09,meteohub,2013-05-30 03:25:00,
2013-05-29 22:30:00,65.5,63.3,29.90,NE,45,6.0,17.0,93,0.24,,,0.24,meteohub,2013-05-30 03:30:00,
2013-05-29 22:35:00,65.3,63.5,29.89,North,0,6.0,14.0,94,0.34,,,0.34,meteohub,2013-05-30 03:35:00,
2013-05-29 22:40:00,65.1,63.7,29.89,NW,315,5.0,11.0,95,0.41,,,0.41,meteohub,2013-05-30 03:40:00,
2013-05-29 22:45:00,65.1,63.7,29.89,NNW,338,7.0,9.0,95,0.41,,,0.41,meteohub,2013-05-30 03:45:00,
2013-05-29 22:50:00,65.1,64.0,29.90,North,0,8.0,12.0,96,0.41,,,0.41,meteohub,2013-05-30 03:50:00,
2013-05-29 22:55:00,65.1,64.2,29.91,North,0,14.0,14.0,97,0.41,,,0.41,meteohub,2013-05-30 03:55:00,
2013-05-29 23:00:00,64.9,64.0,29.92,NW,315,6.0,12.0,97,0.41,,,0.43,meteohub,2013-05-30 04:00:00,
2013-05-29 23:01:00,64.9,64.0,29.91,North,0,7.0,14.0,97,0.43,,,0.43,meteohub,2013-05-30 04:01:00,
2013-05-29 23:02:00,64.9,64.0,29.90,West,270,12.0,14.0,97,0.43,,,0.43,meteohub,2013-05-30 04:02:00,
2013-05-29 23:03:00,64.9,64.0,29.90,NW,315,16.0,16.0,97,0.43,,,0.43,meteohub,2013-05-30 04:03:00,
2013-05-29 23:04:00,64.8,63.9,29.90,NW,315,10.0,14.0,97,0.43,,,0.43,meteohub,2013-05-30 04:04:00,
2013-05-29 23:07:00,64.6,63.7,29.90,NW,315,10.0,16.0,97,0.60,,,0.60,meteohub,2013-05-30 04:07:00,
2013-05-29 23:12:00,64.2,63.3,29.88,North,0,7.0,18.0,97,0.66,,,0.66,meteohub,2013-05-30 04:12:00,
2013-05-29 23:17:00,64.0,63.1,29.88,NW,315,8.0,18.0,97,0.73,,,0.77,meteohub,2013-05-30 04:17:00,
2013-05-29 23:22:00,64.0,63.1,29.88,NW,315,6.0,18.0,97,0.69,,,0.78,meteohub,2013-05-30 04:22:00,
2013-05-29 23:27:00,64.0,63.1,29.88,WNW,293,4.0,14.0,97,0.52,,,0.78,meteohub,2013-05-30 04:27:00,
2013-05-29 23:32:00,64.2,63.3,29.88,NW,315,11.0,11.0,97,0.39,,,0.78,meteohub,2013-05-30 04:32:00,
2013-05-29 23:37:00,64.2,63.3,29.88,North,0,12.0,13.0,97,0.37,,,0.78,meteohub,2013-05-30 04:37:00,
2013-05-29 23:42:00,64.2,63.3,29.88,NW,315,10.0,13.0,97,0.38,,,0.79,meteohub,2013-05-30 04:42:00,
2013-05-29 23:47:00,64.2,63.3,29.88,West,270,12.0,13.0,97,0.38,,,0.79,meteohub,2013-05-30 04:47:00,
2013-05-29 23:52:00,64.2,63.3,29.88,NW,315,11.0,12.0,97,0.38,,,0.79,meteohub,2013-05-30 04:52:00,
2013-05-29 23:57:00,64.2,63.3,29.88,NW,315,4.0,12.0,97,0.37,,,0.79,meteohub,2013-05-30 04:57:00,